createdAt,value
2022-11-16T00:00:37.669Z,16
2022-11-16T00:01:37.655Z,14
2022-11-16T00:02:37.655Z,10
2022-11-16T00:03:37.669Z,10
2022-11-16T00:04:37.669Z,11
2022-11-16T00:05:37.656Z,9
2022-11-16T00:06:37.669Z,11
2022-11-16T00:07:37.670Z,11
2022-11-16T00:08:37.670Z,14
2022-11-16T00:09:37.657Z,17
2022-11-16T00:10:37.670Z,11
2022-11-16T00:11:37.670Z,12
2022-11-16T00:12:37.671Z,11
2022-11-16T00:13:37.658Z,10
2022-11-16T00:14:37.671Z,10
2022-11-16T00:15:37.672Z,11
2022-11-16T00:16:37.672Z,13
2022-11-16T00:17:37.659Z,10
2022-11-16T00:18:37.672Z,10
2022-11-16T00:19:37.673Z,11
2022-11-16T00:20:37.660Z,13
2022-11-16T00:21:37.660Z,10
2022-11-16T00:22:37.673Z,10
2022-11-16T00:23:37.674Z,10
2022-11-16T00:24:37.661Z,9
2022-11-16T00:25:37.661Z,9
2022-11-16T00:26:37.674Z,11
2022-11-16T00:27:37.674Z,17
2022-11-16T00:28:37.662Z,13
2022-11-16T00:29:37.675Z,15
2022-11-16T00:30:37.675Z,16
2022-11-16T00:31:37.675Z,18
2022-11-16T00:32:37.663Z,19
2022-11-16T00:33:37.676Z,19
2022-11-16T00:34:37.677Z,20
2022-11-16T00:35:37.677Z,19
2022-11-16T00:36:37.664Z,23
2022-11-16T00:37:37.677Z,21
2022-11-16T00:38:37.678Z,20
2022-11-16T00:39:37.690Z,18
2022-11-16T00:40:37.665Z,19
2022-11-16T00:41:37.678Z,19
2022-11-16T00:42:37.679Z,23
2022-11-16T00:43:37.666Z,20
2022-11-16T00:44:37.666Z,21
2022-11-16T00:45:37.679Z,22
2022-11-16T00:46:37.679Z,25
2022-11-16T00:47:37.667Z,20
2022-11-16T00:48:37.680Z,17
2022-11-16T00:49:37.680Z,17
2022-11-16T00:50:37.680Z,17
2022-11-16T00:51:37.668Z,19
2022-11-16T00:52:37.681Z,17
2022-11-16T00:53:37.682Z,18
2022-11-16T00:54:37.681Z,16
2022-11-16T00:55:37.669Z,16
2022-11-16T00:56:37.682Z,15
2022-11-16T00:57:37.683Z,15
2022-11-16T00:58:37.670Z,18
2022-11-16T00:59:37.670Z,18
2022-11-16T01:00:37.683Z,20
2022-11-16T01:01:37.684Z,15
2022-11-16T01:02:37.671Z,13
2022-11-16T01:03:37.671Z,12
2022-11-16T01:04:37.684Z,13
2022-11-16T01:05:37.684Z,13
2022-11-16T01:06:37.672Z,15
2022-11-16T01:07:37.685Z,15
2022-11-16T01:08:37.685Z,14
2022-11-16T01:09:37.685Z,16
2022-11-16T01:10:37.673Z,17
2022-11-16T01:11:37.686Z,16
2022-11-16T01:12:37.687Z,13
2022-11-16T01:13:37.686Z,13
2022-11-16T01:14:37.674Z,15
2022-11-16T01:15:37.687Z,13
2022-11-16T01:16:37.688Z,16
2022-11-16T01:17:37.687Z,15
2022-11-16T01:18:37.675Z,14
2022-11-16T01:19:37.688Z,13
2022-11-16T01:20:37.689Z,14
2022-11-16T01:21:37.675Z,15
2022-11-16T01:22:37.676Z,16
2022-11-16T01:23:37.689Z,15
2022-11-16T01:24:37.755Z,20
2022-11-16T01:25:37.676Z,15
2022-11-16T01:26:37.690Z,15
2022-11-16T01:28:37.690Z,16
2022-11-16T01:29:37.677Z,18
2022-11-16T01:30:37.691Z,18
2022-11-16T01:31:37.692Z,18
2022-11-16T01:32:37.691Z,21
2022-11-16T01:33:37.678Z,18
2022-11-16T01:34:37.692Z,17
2022-11-16T01:35:37.692Z,18
2022-11-16T01:36:37.692Z,17
2022-11-16T01:37:37.679Z,20
2022-11-16T01:38:37.693Z,16
2022-11-16T01:39:37.694Z,17
2022-11-16T01:40:37.680Z,18
2022-11-16T01:41:37.680Z,15
2022-11-16T01:42:37.694Z,13
2022-11-16T01:43:37.694Z,15
2022-11-16T01:44:37.681Z,14
2022-11-16T01:45:37.695Z,12
2022-11-16T01:46:37.695Z,9
2022-11-16T01:47:37.695Z,11
2022-11-16T01:48:37.682Z,11
2022-11-16T01:49:37.696Z,10
2022-11-16T01:50:37.696Z,10
2022-11-16T01:51:37.696Z,10
2022-11-16T01:52:37.683Z,10
2022-11-16T01:53:37.696Z,10
2022-11-16T01:54:37.697Z,11
2022-11-16T01:55:37.684Z,11
2022-11-16T01:56:37.684Z,10
2022-11-16T01:57:37.698Z,13
2022-11-16T01:58:37.698Z,15
2022-11-16T01:59:37.685Z,14
2022-11-16T02:00:37.685Z,19
2022-11-16T02:01:37.698Z,17
2022-11-16T02:02:37.698Z,20
2022-11-16T02:03:37.686Z,16
2022-11-16T02:04:37.699Z,16
2022-11-16T02:05:37.699Z,16
2022-11-16T02:06:37.699Z,15
2022-11-16T02:07:37.687Z,18
2022-11-16T02:08:37.700Z,18
2022-11-16T02:09:37.726Z,20
2022-11-16T02:10:37.701Z,18
2022-11-16T02:11:37.688Z,19
2022-11-16T02:12:37.701Z,19
2022-11-16T02:13:37.702Z,18
2022-11-16T02:14:37.702Z,18
2022-11-16T02:15:37.689Z,21
2022-11-16T02:16:37.752Z,20
2022-11-16T02:17:37.703Z,20
2022-11-16T02:18:37.690Z,18
2022-11-16T02:19:37.690Z,21
2022-11-16T02:20:37.703Z,18
2022-11-16T02:21:37.704Z,19
2022-11-16T02:22:37.691Z,16
2022-11-16T02:23:37.746Z,16
2022-11-16T02:24:37.704Z,14
2022-11-16T02:25:37.704Z,15
2022-11-16T02:26:37.692Z,15
2022-11-16T02:27:37.705Z,14
2022-11-16T02:28:37.705Z,14
2022-11-16T02:29:37.705Z,14
2022-11-16T02:30:37.693Z,16
2022-11-16T02:31:37.706Z,16
2022-11-16T02:32:37.707Z,17
2022-11-16T02:33:37.706Z,19
2022-11-16T02:34:37.694Z,15
2022-11-16T02:35:37.731Z,20
2022-11-16T02:36:37.708Z,20
2022-11-16T02:37:37.694Z,17
2022-11-16T02:38:37.695Z,17
2022-11-16T02:39:37.708Z,18
2022-11-16T02:40:37.709Z,20
2022-11-16T02:41:37.695Z,19
2022-11-16T02:42:37.758Z,19
2022-11-16T02:43:37.709Z,17
2022-11-16T02:44:37.709Z,17
2022-11-16T02:45:37.696Z,20
2022-11-16T02:46:37.710Z,16
2022-11-16T02:47:37.710Z,14
2022-11-16T02:48:37.710Z,15
2022-11-16T02:49:37.697Z,17
2022-11-16T02:50:37.711Z,15
2022-11-16T02:51:37.711Z,15
2022-11-16T02:52:37.711Z,13
2022-11-16T02:53:37.698Z,15
2022-11-16T02:54:37.712Z,14
2022-11-16T02:55:37.712Z,15
2022-11-16T02:56:37.699Z,14
2022-11-16T02:57:37.699Z,15
2022-11-16T02:58:37.713Z,14
2022-11-16T02:59:37.713Z,15
2022-11-16T03:00:37.700Z,17
2022-11-16T03:01:37.713Z,14
2022-11-16T03:02:37.714Z,11
2022-11-16T03:03:37.714Z,15
2022-11-16T03:04:37.701Z,10
2022-11-16T03:05:37.714Z,12
2022-11-16T03:06:37.740Z,12
2022-11-16T03:07:37.715Z,12
2022-11-16T03:08:37.702Z,11
2022-11-16T03:09:37.715Z,12
2022-11-16T03:10:37.716Z,12
2022-11-16T03:11:37.716Z,12
2022-11-16T03:12:37.703Z,11
2022-11-16T03:13:37.716Z,10
2022-11-16T03:14:37.717Z,10
2022-11-16T03:15:37.704Z,12
2022-11-16T03:16:37.704Z,12
2022-11-16T03:17:37.717Z,11
2022-11-16T03:18:37.718Z,14
2022-11-16T03:19:37.705Z,13
2022-11-16T03:20:37.705Z,14
2022-11-16T03:21:37.718Z,15
2022-11-16T03:22:37.718Z,17
2022-11-16T03:23:37.706Z,16
2022-11-16T03:24:37.719Z,17
2022-11-16T03:25:37.719Z,17
2022-11-16T03:26:37.719Z,17
2022-11-16T03:27:37.706Z,14
2022-11-16T03:28:37.720Z,15
2022-11-16T03:29:37.721Z,14
2022-11-16T03:30:37.720Z,17
2022-11-16T03:31:37.707Z,14
2022-11-16T03:32:37.721Z,16
2022-11-16T03:33:37.722Z,15
2022-11-16T03:34:37.708Z,15
2022-11-16T03:35:37.708Z,19
2022-11-16T03:36:37.722Z,16
2022-11-16T03:37:37.722Z,19
2022-11-16T03:38:37.709Z,19
2022-11-16T03:39:37.709Z,17
2022-11-16T03:40:37.723Z,17
2022-11-16T03:41:37.723Z,18
2022-11-16T03:42:37.710Z,17
2022-11-16T03:43:37.723Z,16
2022-11-16T03:44:37.724Z,15
2022-11-16T03:45:37.724Z,20
2022-11-16T03:46:37.711Z,17
2022-11-16T03:47:37.725Z,18
2022-11-16T03:48:37.725Z,15
2022-11-16T03:49:37.725Z,13
2022-11-16T03:50:37.712Z,14
2022-11-16T03:51:37.725Z,14
2022-11-16T03:52:37.726Z,13
2022-11-16T03:53:37.726Z,10
2022-11-16T03:54:37.713Z,13
2022-11-16T03:55:37.726Z,11
2022-11-16T03:56:37.727Z,11
2022-11-16T03:57:37.714Z,12
2022-11-16T03:58:37.714Z,10
2022-11-16T03:59:37.727Z,10
2022-11-16T04:00:37.752Z,9
2022-11-16T04:01:37.715Z,10
2022-11-16T04:02:37.728Z,12
2022-11-16T04:03:37.728Z,11
2022-11-16T04:04:37.728Z,12
2022-11-16T04:05:37.716Z,15
2022-11-16T04:06:37.729Z,15
2022-11-16T04:07:37.730Z,13
2022-11-16T04:08:37.730Z,14
2022-11-16T04:09:37.717Z,15
2022-11-16T04:10:37.730Z,16
2022-11-16T04:11:37.731Z,18
2022-11-16T04:12:37.730Z,16
2022-11-16T04:13:37.718Z,16
2022-11-16T04:14:37.731Z,17
2022-11-16T04:15:37.732Z,22
2022-11-16T04:16:37.718Z,21
2022-11-16T04:17:37.719Z,23
2022-11-16T04:18:37.732Z,22
2022-11-16T04:19:37.733Z,18
2022-11-16T04:20:37.719Z,17
2022-11-16T04:21:37.733Z,18
2022-11-16T04:22:37.733Z,18
2022-11-16T04:23:37.733Z,17
2022-11-16T04:24:37.720Z,18
2022-11-16T04:25:37.734Z,16
2022-11-16T04:26:37.734Z,19
2022-11-16T04:27:37.734Z,18
2022-11-16T04:28:37.721Z,21
2022-11-16T04:29:37.735Z,21
2022-11-16T04:30:37.735Z,21
2022-11-16T04:31:37.735Z,15
2022-11-16T04:32:37.722Z,16
2022-11-16T04:33:37.736Z,15
2022-11-16T04:34:37.736Z,15
2022-11-16T04:35:37.723Z,17
2022-11-16T04:36:37.723Z,14
2022-11-16T04:37:37.737Z,15
2022-11-16T04:38:37.737Z,20
2022-11-16T04:39:37.724Z,16
2022-11-16T04:40:37.737Z,20
2022-11-16T04:41:37.738Z,17
2022-11-16T04:42:37.738Z,17
2022-11-16T04:43:37.725Z,15
2022-11-16T04:44:37.738Z,15
2022-11-16T04:45:37.784Z,15
2022-11-16T04:46:37.739Z,14
2022-11-16T04:47:37.726Z,14
2022-11-16T04:48:37.739Z,15
2022-11-16T04:49:37.740Z,16
2022-11-16T04:50:37.740Z,13
2022-11-16T04:51:37.727Z,14
2022-11-16T04:52:37.740Z,13
2022-11-16T04:53:37.741Z,15
2022-11-16T04:54:37.728Z,11
2022-11-16T04:55:37.728Z,11
2022-11-16T04:56:37.741Z,14
2022-11-16T04:57:37.742Z,12
2022-11-16T04:58:37.729Z,12
2022-11-16T04:59:37.742Z,13
2022-11-16T05:00:37.742Z,14
2022-11-16T05:01:37.742Z,13
2022-11-16T05:02:37.730Z,15
2022-11-16T05:03:37.743Z,16
2022-11-16T05:04:37.769Z,18
2022-11-16T05:05:37.743Z,21
2022-11-16T05:06:37.731Z,20
2022-11-16T05:07:37.744Z,24
2022-11-16T05:08:43.609Z,26
2022-11-16T05:09:37.744Z,29
2022-11-16T05:10:37.732Z,28
2022-11-16T05:11:37.745Z,27
2022-11-16T05:12:37.746Z,24
2022-11-16T05:13:37.732Z,21
2022-11-16T05:14:37.733Z,21
2022-11-16T05:15:37.746Z,18
2022-11-16T05:16:37.746Z,20
2022-11-16T05:17:37.733Z,20
2022-11-16T05:18:37.734Z,19
2022-11-16T05:19:37.747Z,19
2022-11-16T05:20:37.747Z,20
2022-11-16T05:21:37.734Z,19
2022-11-16T05:22:37.748Z,17
2022-11-16T05:23:37.748Z,18
2022-11-16T05:24:37.748Z,18
2022-11-16T05:26:37.749Z,19
2022-11-16T05:27:37.749Z,17
2022-11-16T05:28:37.749Z,17
2022-11-16T05:29:37.736Z,19
2022-11-16T05:30:37.750Z,15
2022-11-16T05:31:37.750Z,15
2022-11-16T05:32:37.750Z,15
2022-11-16T05:33:37.737Z,16
2022-11-16T05:34:37.750Z,13
2022-11-16T05:35:37.751Z,15
2022-11-16T05:36:37.738Z,16
2022-11-16T05:37:37.738Z,16
2022-11-16T05:38:37.751Z,17
2022-11-16T05:39:37.752Z,20
2022-11-16T05:40:37.739Z,17
2022-11-16T05:41:37.752Z,21
2022-11-16T05:42:37.752Z,16
2022-11-16T05:43:37.752Z,18
2022-11-16T05:44:37.740Z,19
2022-11-16T05:45:37.753Z,21
2022-11-16T05:46:37.754Z,21
2022-11-16T05:47:37.753Z,19
2022-11-16T05:48:37.741Z,15
2022-11-16T05:49:37.754Z,17
2022-11-16T05:50:37.755Z,17
2022-11-16T05:51:37.755Z,21
2022-11-16T05:52:37.742Z,20
2022-11-16T05:53:37.755Z,22
2022-11-16T05:54:37.756Z,23
2022-11-16T05:55:37.742Z,26
2022-11-16T05:56:37.743Z,18
2022-11-16T05:57:37.756Z,16
2022-11-16T05:58:37.757Z,20
2022-11-16T05:59:37.743Z,22
2022-11-16T06:00:37.757Z,27
2022-11-16T06:01:37.757Z,22
2022-11-16T06:02:37.757Z,26
2022-11-16T06:03:37.744Z,24
2022-11-16T06:08:41.372Z,20
2022-11-16T06:09:37.759Z,33
2022-11-16T06:10:37.759Z,38
2022-11-16T06:11:37.746Z,24
2022-11-16T06:12:37.760Z,27
2022-11-16T06:13:37.760Z,29
2022-11-16T06:14:37.747Z,26
2022-11-16T06:15:37.747Z,29
2022-11-16T06:20:37.762Z,24
2022-11-16T06:21:37.762Z,36
2022-11-16T06:22:37.749Z,36
2022-11-16T06:24:37.763Z,34
2022-11-16T06:25:37.763Z,31
2022-11-16T06:26:37.750Z,30
2022-11-16T06:28:37.764Z,29
2022-11-16T06:29:37.764Z,29
2022-11-16T06:30:37.751Z,31
2022-11-16T06:32:37.765Z,27
2022-11-16T06:33:37.752Z,19
2022-11-16T06:34:37.752Z,30
2022-11-16T06:35:37.765Z,26
2022-11-16T06:36:37.766Z,21
2022-11-16T06:37:37.753Z,26
2022-11-16T06:38:37.807Z,24
2022-11-16T06:39:37.766Z,28
2022-11-16T06:40:37.766Z,26
2022-11-16T06:41:37.753Z,25
2022-11-16T06:42:37.767Z,23
2022-11-16T06:43:37.767Z,24
2022-11-16T06:44:37.767Z,26
2022-11-16T06:45:37.754Z,27
2022-11-16T06:46:37.768Z,23
2022-11-16T06:47:37.768Z,24
2022-11-16T06:48:37.768Z,26
2022-11-16T06:49:37.755Z,34
2022-11-16T06:50:37.769Z,29
2022-11-16T06:51:37.769Z,37
2022-11-16T06:52:37.756Z,35
2022-11-16T06:53:37.756Z,40
2022-11-16T06:54:37.770Z,25
2022-11-16T06:55:37.770Z,31
2022-11-16T06:56:37.757Z,30
2022-11-16T06:57:37.771Z,34
2022-11-16T06:58:37.771Z,29
2022-11-16T06:59:37.771Z,23
2022-11-16T07:00:37.758Z,27
2022-11-16T07:01:37.771Z,32
2022-11-16T07:02:37.824Z,34
2022-11-16T07:03:37.772Z,35
2022-11-16T07:04:37.759Z,35
2022-11-16T07:05:37.772Z,28
2022-11-16T07:06:37.773Z,27
2022-11-16T07:07:37.773Z,29
2022-11-16T07:08:37.760Z,32
2022-11-16T07:09:37.773Z,34
2022-11-16T07:10:37.774Z,22
2022-11-16T07:11:37.761Z,31
2022-11-16T07:12:37.761Z,26
2022-11-16T07:13:37.774Z,30
2022-11-16T07:14:37.775Z,30
2022-11-16T07:15:37.762Z,31
2022-11-16T07:16:37.762Z,33
2022-11-16T07:17:37.775Z,32
2022-11-16T07:18:37.775Z,31
2022-11-16T07:19:37.763Z,38
2022-11-16T07:20:37.776Z,36
2022-11-16T07:21:37.776Z,41
2022-11-16T07:22:37.776Z,42
2022-11-16T07:23:37.764Z,43
2022-11-16T07:24:37.777Z,39
2022-11-16T07:25:37.778Z,34
2022-11-16T07:26:37.777Z,33
2022-11-16T07:27:37.765Z,31
2022-11-16T07:28:37.778Z,35
2022-11-16T07:29:37.779Z,29
2022-11-16T07:30:37.778Z,36
2022-11-16T07:31:37.765Z,27
2022-11-16T07:32:37.779Z,26
2022-11-16T07:33:37.780Z,30
2022-11-16T07:34:37.766Z,31
2022-11-16T07:35:37.766Z,38
2022-11-16T07:36:37.780Z,34
2022-11-16T07:37:37.781Z,37
2022-11-16T07:38:37.767Z,31
2022-11-16T07:39:37.767Z,29
2022-11-16T07:40:37.781Z,35
2022-11-16T07:41:37.781Z,41
2022-11-16T07:42:37.768Z,42
2022-11-16T07:43:37.781Z,42
2022-11-16T07:44:37.782Z,44
2022-11-16T07:45:37.782Z,45
2022-11-16T07:46:37.769Z,40
2022-11-16T07:47:37.783Z,39
2022-11-16T07:48:37.783Z,39
2022-11-16T07:49:37.783Z,29
2022-11-16T07:50:37.770Z,31
2022-11-16T07:51:37.784Z,37
2022-11-16T07:52:37.784Z,35
2022-11-16T07:53:37.771Z,34
2022-11-16T07:54:37.771Z,41
2022-11-16T07:55:37.784Z,36
2022-11-16T07:56:37.785Z,37
2022-11-16T07:57:37.772Z,45
2022-11-16T07:58:37.772Z,43
2022-11-16T07:59:37.785Z,40
2022-11-16T08:00:37.786Z,46
2022-11-16T08:01:37.773Z,35
2022-11-16T08:02:37.786Z,26
2022-11-16T08:03:37.786Z,29
2022-11-16T08:04:37.786Z,40
2022-11-16T08:05:37.774Z,37
2022-11-16T08:06:37.787Z,42
2022-11-16T08:07:37.788Z,49
2022-11-16T08:08:37.788Z,43
2022-11-16T08:09:37.775Z,43
2022-11-16T08:10:37.788Z,41
2022-11-16T08:11:37.789Z,36
2022-11-16T08:12:37.776Z,39
2022-11-16T08:13:37.776Z,39
2022-11-16T08:14:37.789Z,43
2022-11-16T08:15:37.790Z,50
2022-11-16T08:16:37.777Z,40
2022-11-16T08:17:37.856Z,41
2022-11-16T08:18:37.790Z,41
2022-11-16T08:19:37.790Z,40
2022-11-16T08:20:37.778Z,50
2022-11-16T08:21:37.791Z,46
2022-11-16T08:22:37.791Z,42
2022-11-16T08:23:37.791Z,42
2022-11-16T08:24:37.779Z,47
2022-11-16T08:25:37.792Z,61
2022-11-16T08:26:37.793Z,48
2022-11-16T08:27:37.792Z,53
2022-11-16T08:28:37.780Z,47
2022-11-16T08:29:37.793Z,42
2022-11-16T08:30:37.794Z,46
2022-11-16T08:31:37.780Z,44
2022-11-16T08:32:37.781Z,47
2022-11-16T08:33:37.794Z,42
2022-11-16T08:34:37.795Z,41
2022-11-16T08:35:37.781Z,45
2022-11-16T08:36:37.819Z,43
2022-11-16T08:37:37.795Z,48
2022-11-16T08:38:37.795Z,43
2022-11-16T08:39:37.782Z,53
2022-11-16T08:40:37.796Z,46
2022-11-16T08:41:37.796Z,40
2022-11-16T08:42:37.796Z,42
2022-11-16T08:43:37.783Z,43
2022-11-16T08:44:37.797Z,41
2022-11-16T08:45:37.864Z,44
2022-11-16T08:46:37.797Z,44
2022-11-16T08:47:37.784Z,47
2022-11-16T08:48:37.798Z,47
2022-11-16T08:49:37.799Z,39
2022-11-16T08:50:37.798Z,55
2022-11-16T08:51:37.785Z,56
2022-11-16T08:52:37.799Z,55
2022-11-16T08:53:37.799Z,52
2022-11-16T08:54:37.786Z,54
2022-11-16T08:55:37.786Z,53
2022-11-16T08:56:37.800Z,47
2022-11-16T08:57:37.800Z,46
2022-11-16T08:58:37.787Z,37
2022-11-16T08:59:37.800Z,50
2022-11-16T09:00:37.801Z,46
2022-11-16T09:01:37.801Z,36
2022-11-16T09:02:37.788Z,38
2022-11-16T09:03:37.801Z,39
2022-11-16T09:04:37.847Z,40
2022-11-16T09:05:37.802Z,40
2022-11-16T09:06:37.789Z,42
2022-11-16T09:07:37.802Z,39
2022-11-16T09:08:37.804Z,41
2022-11-16T09:09:37.803Z,50
2022-11-16T09:10:37.790Z,62
2022-11-16T09:11:37.803Z,56
2022-11-16T09:12:37.804Z,53
2022-11-16T09:13:37.791Z,54
2022-11-16T09:14:37.791Z,60
2022-11-16T09:15:37.804Z,63
2022-11-16T09:16:37.829Z,47
2022-11-16T09:17:37.792Z,54
2022-11-16T09:18:37.805Z,57
2022-11-16T09:19:37.805Z,60
2022-11-16T09:20:37.806Z,64
2022-11-16T09:21:37.793Z,57
2022-11-16T09:22:37.806Z,59
2022-11-16T09:23:37.807Z,58
2022-11-16T09:24:37.807Z,50
2022-11-16T09:25:37.794Z,47
2022-11-16T09:26:37.807Z,46
2022-11-16T09:27:37.808Z,49
2022-11-16T09:28:37.795Z,45
2022-11-16T09:29:37.795Z,47
2022-11-16T09:30:37.808Z,57
2022-11-16T09:31:37.809Z,60
2022-11-16T09:32:37.796Z,57
2022-11-16T09:33:37.796Z,57
2022-11-16T09:34:37.809Z,58
2022-11-16T09:35:37.817Z,53
2022-11-16T09:36:37.797Z,66
2022-11-16T09:37:37.810Z,65
2022-11-16T09:38:37.810Z,47
2022-11-16T09:39:37.810Z,50
2022-11-16T09:40:37.798Z,49
2022-11-16T09:41:37.811Z,53
2022-11-16T09:42:37.812Z,52
2022-11-16T09:43:37.812Z,48
2022-11-16T09:44:37.799Z,63
2022-11-16T09:45:37.812Z,69
2022-11-16T09:46:37.813Z,71
2022-11-16T09:47:37.813Z,65
2022-11-16T09:48:37.800Z,63
2022-11-16T09:49:37.813Z,68
2022-11-16T09:50:37.814Z,61
2022-11-16T09:51:37.801Z,54
2022-11-16T09:52:37.801Z,57
2022-11-16T09:53:37.815Z,57
2022-11-16T09:54:37.815Z,60
2022-11-16T09:55:37.802Z,61
2022-11-16T09:56:37.815Z,57
2022-11-16T09:57:37.816Z,59
2022-11-16T09:58:37.816Z,61
2022-11-16T09:59:37.803Z,61
2022-11-16T10:00:37.816Z,67
2022-11-16T10:01:37.843Z,61
2022-11-16T10:02:37.817Z,55
2022-11-16T10:03:37.804Z,55
2022-11-16T10:04:37.817Z,49
2022-11-16T10:05:37.818Z,57
2022-11-16T10:06:37.818Z,56
2022-11-16T10:07:37.805Z,57
2022-11-16T10:08:37.819Z,47
2022-11-16T10:09:37.820Z,49
2022-11-16T10:10:37.806Z,58
2022-11-16T10:11:37.806Z,55
2022-11-16T10:12:37.820Z,51
2022-11-16T10:13:37.844Z,58
2022-11-16T10:14:37.807Z,67
2022-11-16T10:15:37.821Z,61
2022-11-16T10:16:37.821Z,42
2022-11-16T10:17:37.821Z,45
2022-11-16T10:18:37.808Z,45
2022-11-16T10:19:37.822Z,48
2022-11-16T10:20:37.823Z,57
2022-11-16T10:21:37.822Z,70
2022-11-16T10:22:37.810Z,57
2022-11-16T10:23:37.823Z,42
2022-11-16T10:24:37.824Z,45
2022-11-16T10:25:37.824Z,41
2022-11-16T10:26:37.811Z,49
2022-11-16T10:27:37.824Z,46
2022-11-16T10:28:37.825Z,40
2022-11-16T10:29:37.812Z,49
2022-11-16T10:30:37.812Z,51
2022-11-16T10:31:37.825Z,54
2022-11-16T10:32:37.826Z,47
2022-11-16T10:33:37.813Z,51
2022-11-16T10:34:37.826Z,50
2022-11-16T10:35:37.827Z,45
2022-11-16T10:36:37.827Z,52
2022-11-16T10:37:37.814Z,56
2022-11-16T10:38:37.827Z,48
2022-11-16T10:39:37.828Z,53
2022-11-16T10:40:37.828Z,49
2022-11-16T10:41:37.815Z,49
2022-11-16T10:42:37.829Z,51
2022-11-16T10:43:37.829Z,51
2022-11-16T10:44:37.829Z,50
2022-11-16T10:45:37.816Z,60
2022-11-16T10:46:37.838Z,55
2022-11-16T10:47:37.830Z,69
2022-11-16T10:48:37.817Z,57
2022-11-16T10:49:37.817Z,63
2022-11-16T10:50:37.831Z,64
2022-11-16T10:51:37.832Z,68
2022-11-16T10:52:37.818Z,65
2022-11-16T10:53:37.832Z,66
2022-11-16T10:54:37.832Z,61
2022-11-16T10:55:37.832Z,57
2022-11-16T10:56:37.819Z,59
2022-11-16T10:57:37.833Z,63
2022-11-16T10:58:37.886Z,52
2022-11-16T10:59:37.833Z,61
2022-11-16T11:00:37.821Z,71
2022-11-16T11:01:37.834Z,56
2022-11-16T11:02:37.835Z,51
2022-11-16T11:03:37.835Z,60
2022-11-16T11:04:37.822Z,56
2022-11-16T11:05:37.835Z,58
2022-11-16T11:06:37.836Z,60
2022-11-16T11:07:37.823Z,61
2022-11-16T11:08:37.823Z,57
2022-11-16T11:09:37.836Z,77
2022-11-16T11:10:37.837Z,60
2022-11-16T11:11:37.824Z,56
2022-11-16T11:12:37.837Z,54
2022-11-16T11:13:37.837Z,56
2022-11-16T11:14:37.838Z,61
2022-11-16T11:15:37.825Z,87
2022-11-16T11:16:37.838Z,78
2022-11-16T11:17:37.839Z,65
2022-11-16T11:18:37.839Z,71
2022-11-16T11:19:37.826Z,75
2022-11-16T11:20:37.840Z,83
2022-11-16T11:21:37.840Z,77
2022-11-16T11:22:37.827Z,70
2022-11-16T11:23:37.827Z,76
2022-11-16T11:24:37.841Z,82
2022-11-16T11:25:37.842Z,82
2022-11-16T11:26:37.828Z,80
2022-11-16T11:27:37.829Z,85
2022-11-16T11:28:37.842Z,80
2022-11-16T11:29:37.842Z,77
2022-11-16T11:30:37.830Z,81
2022-11-16T11:31:37.844Z,83
2022-11-16T11:32:37.844Z,67
2022-11-16T11:33:37.844Z,82
2022-11-16T11:34:37.831Z,85
2022-11-16T11:35:37.845Z,76
2022-11-16T11:36:37.846Z,78
2022-11-16T11:37:37.846Z,79
2022-11-16T11:38:37.833Z,72
2022-11-16T11:39:37.846Z,62
2022-11-16T11:40:37.847Z,76
2022-11-16T11:41:37.847Z,76
2022-11-16T11:42:37.834Z,72
2022-11-16T11:43:37.848Z,74
2022-11-16T11:44:37.848Z,76
2022-11-16T11:45:37.835Z,90
2022-11-16T11:46:37.835Z,73
2022-11-16T11:47:37.849Z,83
2022-11-16T11:48:37.849Z,75
2022-11-16T11:49:37.836Z,78
2022-11-16T11:50:37.850Z,75
2022-11-16T11:51:37.850Z,80
2022-11-16T11:52:37.850Z,95
2022-11-16T11:53:37.838Z,103
2022-11-16T11:54:37.851Z,88
2022-11-16T11:55:37.852Z,90
2022-11-16T11:56:37.852Z,77
2022-11-16T11:57:37.839Z,90
2022-11-16T11:58:37.852Z,81
2022-11-16T11:59:37.853Z,73
2022-11-16T12:00:37.840Z,94
2022-11-16T12:01:37.840Z,89
2022-11-16T12:02:37.854Z,96
2022-11-16T12:03:37.854Z,86
2022-11-16T12:04:37.841Z,89
2022-11-16T12:05:37.841Z,76
2022-11-16T12:06:37.855Z,76
2022-11-16T12:07:37.879Z,80
2022-11-16T12:08:37.842Z,77
2022-11-16T12:09:37.856Z,82
2022-11-16T12:10:37.856Z,71
2022-11-16T12:11:37.856Z,69
2022-11-16T12:12:37.844Z,82
2022-11-16T12:13:37.857Z,74
2022-11-16T12:14:37.858Z,80
2022-11-16T12:15:37.858Z,76
2022-11-16T12:16:37.845Z,79
2022-11-16T12:17:37.858Z,79
2022-11-16T12:18:37.859Z,75
2022-11-16T12:19:37.846Z,72
2022-11-16T12:20:37.846Z,64
2022-11-16T12:21:37.860Z,64
2022-11-16T12:22:37.860Z,74
2022-11-16T12:23:37.847Z,57
2022-11-16T12:24:37.848Z,54
2022-11-16T12:25:37.861Z,63
2022-11-16T12:26:37.861Z,66
2022-11-16T12:27:37.848Z,71
2022-11-16T12:28:37.862Z,70
2022-11-16T12:29:37.862Z,68
2022-11-16T12:30:37.862Z,61
2022-11-16T12:31:37.850Z,57
2022-11-16T12:32:37.863Z,62
2022-11-16T12:33:37.864Z,61
2022-11-16T12:34:37.864Z,65
2022-11-16T12:35:37.851Z,60
2022-11-16T12:36:37.864Z,56
2022-11-16T12:37:37.865Z,60
2022-11-16T12:38:37.852Z,57
2022-11-16T12:39:37.852Z,60
2022-11-16T12:40:37.866Z,55
2022-11-16T12:41:37.867Z,59
2022-11-16T12:42:37.853Z,59
2022-11-16T12:43:37.854Z,65
2022-11-16T12:44:37.867Z,58
2022-11-16T12:45:37.867Z,61
2022-11-16T12:46:37.855Z,56
2022-11-16T12:47:37.868Z,58
2022-11-16T12:48:37.868Z,55
2022-11-16T12:49:37.869Z,58
2022-11-16T12:50:37.856Z,58
2022-11-16T12:51:37.869Z,65
2022-11-16T12:52:37.870Z,62
2022-11-16T12:53:37.870Z,65
2022-11-16T12:54:37.857Z,56
2022-11-16T12:55:37.871Z,56
2022-11-16T12:56:37.871Z,56
2022-11-16T12:57:37.858Z,58
2022-11-16T12:58:37.858Z,64
2022-11-16T12:59:37.872Z,50
2022-11-16T13:00:37.873Z,55
2022-11-16T13:01:37.859Z,51
2022-11-16T13:02:37.860Z,42
2022-11-16T13:03:37.873Z,50
2022-11-16T13:04:37.874Z,45
2022-11-16T13:05:37.861Z,47
2022-11-16T13:06:37.874Z,50
2022-11-16T13:07:37.875Z,57
2022-11-16T13:08:37.875Z,54
2022-11-16T13:09:37.862Z,55
2022-11-16T13:10:37.875Z,47
2022-11-16T13:12:37.876Z,60
2022-11-16T13:13:37.863Z,54
2022-11-16T13:14:37.877Z,54
2022-11-16T13:15:37.878Z,52
2022-11-16T13:16:37.864Z,55
2022-11-16T13:17:37.865Z,60
2022-11-16T13:18:37.878Z,53
2022-11-16T13:19:37.879Z,52
2022-11-16T13:20:37.866Z,47
2022-11-16T13:21:37.945Z,45
2022-11-16T13:22:37.879Z,46
2022-11-16T13:23:37.879Z,53
2022-11-16T13:24:37.867Z,61
2022-11-16T13:25:37.881Z,55
2022-11-16T13:26:37.881Z,51
2022-11-16T13:27:37.881Z,52
2022-11-16T13:28:37.868Z,48
2022-11-16T13:29:37.882Z,51
2022-11-16T13:30:37.882Z,54
2022-11-16T13:31:37.882Z,65
2022-11-16T13:32:37.869Z,57
2022-11-16T13:33:37.883Z,52
2022-11-16T13:34:37.884Z,45
2022-11-16T13:35:37.870Z,38
2022-11-16T13:36:37.871Z,44
2022-11-16T13:37:37.884Z,44
2022-11-16T13:38:37.885Z,47
2022-11-16T13:39:52.890Z,46
2022-11-16T13:40:37.872Z,45
2022-11-16T13:41:37.885Z,43
2022-11-16T13:42:37.885Z,49
2022-11-16T13:43:37.873Z,49
2022-11-16T13:44:37.886Z,47
2022-11-16T13:45:37.887Z,66
2022-11-16T13:46:37.887Z,55
2022-11-16T13:47:37.874Z,61
2022-11-16T13:48:37.887Z,72
2022-11-16T13:49:37.888Z,68
2022-11-16T13:50:37.888Z,67
2022-11-16T13:51:37.875Z,70
2022-11-16T13:52:37.888Z,73
2022-11-16T13:53:37.889Z,60
2022-11-16T13:54:37.876Z,64
2022-11-16T13:55:37.876Z,56
2022-11-16T13:56:37.890Z,53
2022-11-16T13:57:37.890Z,55
2022-11-16T13:58:37.877Z,53
2022-11-16T13:59:37.877Z,66
2022-11-16T14:00:37.891Z,72
2022-11-16T14:01:37.891Z,50
2022-11-16T14:02:37.878Z,60
2022-11-16T14:03:37.892Z,67
2022-11-16T14:04:37.892Z,56
2022-11-16T14:05:37.892Z,48
2022-11-16T14:06:37.879Z,50
2022-11-16T14:07:37.893Z,54
2022-11-16T14:08:37.894Z,52
2022-11-16T14:09:37.893Z,53
2022-11-16T14:10:37.881Z,47
2022-11-16T14:11:37.894Z,49
2022-11-16T14:12:37.895Z,58
2022-11-16T14:13:37.881Z,56
2022-11-16T14:14:37.882Z,60
2022-11-16T14:15:37.895Z,58
2022-11-16T14:16:37.896Z,52
2022-11-16T14:17:37.882Z,52
2022-11-16T14:18:37.936Z,50
2022-11-16T14:19:37.896Z,55
2022-11-16T14:20:37.896Z,48
2022-11-16T14:21:37.884Z,43
2022-11-16T14:22:37.897Z,51
2022-11-16T14:23:37.897Z,46
2022-11-16T14:24:37.897Z,50
2022-11-16T14:25:37.885Z,61
2022-11-16T14:26:37.898Z,48
2022-11-16T14:27:37.899Z,46
2022-11-16T14:28:37.898Z,48
2022-11-16T14:29:37.886Z,46